METAR Data
IDs: Format: Raw Decoded Include TAF

Data at: 1402 UTC 27 Nov 2021

VTSP 271330Z VRB02KT 9000 FEW020 26/25 Q1011 RETS NOSIG